Time;durP1;ratioP1;P1;durP2;ratioP2;P2;SDS_P1;SDS_P2;PMS_P1;PMS_P2;Temp;Humidity;BMP_temperature;BMP_pressure;BME280_temperature;BME280_humidity;BME280_pressure;Samples;Min_cycle;Max_cycle;Signal;HPM_P1;HPM_P2
2024/01/19 00:01:45;;;;;;;;;;;;;;;21.19;29.20;94907.66;10470017;28;2951;-68
2024/01/19 00:06:46;;;;;;;;;;;;;;;21.16;29.04;94918.81;10472034;28;3108;-69
2024/01/19 00:11:47;;;;;;;;;;;;;;;21.13;29.15;94924.66;10475258;28;3118;-67
2024/01/19 00:16:47;;;;;;;;;;;;;;;21.10;29.27;94925.25;10475449;28;2989;-68
2024/01/19 00:21:48;;;;;;;;;;;;;;;21.13;29.09;94927.28;10468079;28;2949;-67
2024/01/19 00:26:48;;;;;;;;;;;;;;;21.10;28.88;94947.13;10476739;28;2841;-67
2024/01/19 00:31:48;;;;;;;;;;;;;;;21.12;28.96;94946.84;10469610;28;2775;-67
2024/01/19 00:36:49;;;;;;;;;;;;;;;21.05;28.97;94960.41;10469892;28;2938;-67
2024/01/19 00:41:49;;;;;;;;;;;;;;;21.05;29.14;94960.41;10465047;28;2961;-67
2024/01/19 00:46:51;;;;;;;;;;;;;;;21.03;28.75;94973.88;10501325;28;2999;-67
2024/01/19 00:51:51;;;;;;;;;;;;;;;20.97;29.07;94982.94;10474713;28;2985;-68
2024/01/19 00:56:51;;;;;;;;;;;;;;;20.97;29.09;94996.09;10497303;28;3567;-68
2024/01/19 01:01:51;;;;;;;;;;;;;;;20.98;28.84;95008.19;10470409;28;2871;-67
2024/01/19 01:06:51;;;;;;;;;;;;;;;20.98;29.02;95013.47;10501768;28;2971;-68
2024/01/19 01:11:52;;;;;;;;;;;;;;;20.97;28.95;95021.66;10498413;28;2926;-69
2024/01/19 01:16:52;;;;;;;;;;;;;;;20.96;28.74;95015.59;10475768;28;2781;-69
2024/01/19 01:21:52;;;;;;;;;;;;;;;20.95;28.88;95019.34;10496406;28;2825;-68
2024/01/19 01:26:53;;;;;;;;;;;;;;;20.95;28.70;95026.44;10472227;28;2805;-67
2024/01/19 01:31:53;;;;;;;;;;;;;;;20.97;28.26;95037.47;10453797;28;2961;-68
2024/01/19 01:36:53;;;;;;;;;;;;;;;20.95;28.70;95056.22;10497736;28;2910;-67
2024/01/19 01:41:54;;;;;;;;;;;;;;;20.93;28.72;95057.56;10472548;28;2990;-68
2024/01/19 01:46:54;;;;;;;;;;;;;;;20.96;28.24;95070.94;10465279;28;2981;-68
2024/01/19 01:51:54;;;;;;;;;;;;;;;20.95;28.07;95073.88;10465474;28;3005;-68
2024/01/19 01:56:54;;;;;;;;;;;;;;;20.95;28.29;95079.13;10497507;28;2977;-67
2024/01/19 02:01:55;;;;;;;;;;;;;;;20.97;28.17;95090.97;10464956;28;3043;-68
2024/01/19 02:06:55;;;;;;;;;;;;;;;20.96;28.17;95094.66;10501969;28;2967;-69
2024/01/19 02:11:55;;;;;;;;;;;;;;;20.95;28.03;95098.38;10463169;28;3075;-68
2024/01/19 02:16:56;;;;;;;;;;;;;;;20.95;27.82;95101.00;10470103;28;2887;-67
2024/01/19 02:21:56;;;;;;;;;;;;;;;20.96;28.21;95118.34;10463368;28;2976;-68
2024/01/19 02:26:56;;;;;;;;;;;;;;;20.99;27.63;95122.28;10479069;28;3064;-68
2024/01/19 02:31:56;;;;;;;;;;;;;;;20.96;27.85;95131.53;10496888;28;2950;-68
2024/01/19 02:36:57;;;;;;;;;;;;;;;20.96;27.96;95128.91;10494603;28;2794;-70
2024/01/19 02:41:57;;;;;;;;;;;;;;;20.97;27.93;95133.13;10460644;28;2969;-68
2024/01/19 02:46:57;;;;;;;;;;;;;;;21.00;27.77;95147.53;10467646;28;3057;-68
2024/01/19 02:51:57;;;;;;;;;;;;;;;20.96;27.74;95165.78;10468817;28;2839;-69
2024/01/19 02:57:00;;;;;;;;;;;;;;;20.98;27.57;95166.28;10462246;28;2914;-69
2024/01/19 03:02:00;;;;;;;;;;;;;;;21.01;27.60;95168.34;10502860;28;2792;-67
2024/01/19 03:07:01;;;;;;;;;;;;;;;21.01;27.52;95172.81;10472704;28;3056;-68
2024/01/19 03:12:01;;;;;;;;;;;;;;;20.99;27.39;95181.03;10462379;28;2931;-68
2024/01/19 03:17:02;;;;;;;;;;;;;;;21.00;27.60;95182.56;10474955;28;2973;-69
2024/01/19 03:22:02;;;;;;;;;;;;;;;21.01;27.37;95183.38;10478813;28;3147;-69
2024/01/19 03:27:03;;;;;;;;;;;;;;;20.99;27.55;95188.94;10507641;27;2981;-68
2024/01/19 03:32:03;;;;;;;;;;;;;;;21.00;27.39;95202.88;10473170;28;2906;-68
2024/01/19 03:37:03;;;;;;;;;;;;;;;20.97;27.57;95212.16;10469153;28;3004;-68
2024/01/19 03:42:03;;;;;;;;;;;;;;;20.99;27.35;95214.50;10475144;28;2899;-68
2024/01/19 03:47:04;;;;;;;;;;;;;;;21.01;27.49;95223.69;10479492;28;2922;-68
2024/01/19 03:52:05;;;;;;;;;;;;;;;21.01;27.58;95217.63;10468298;28;2933;-67
2024/01/19 03:57:06;;;;;;;;;;;;;;;21.01;27.34;95228.16;10503628;28;3020;-68
2024/01/19 04:02:06;;;;;;;;;;;;;;;21.03;27.52;95247.91;10474081;28;2884;-68
2024/01/19 04:07:06;;;;;;;;;;;;;;;21.01;27.59;95249.25;10469769;28;3065;-68
2024/01/19 04:12:14;;;;;;;;;;;;;;;21.03;27.37;95244.50;10466035;28;3040;-65
2024/01/19 04:17:14;;;;;;;;;;;;;;;21.02;27.58;95259.53;10468462;28;2866;-68
2024/01/19 04:22:14;;;;;;;;;;;;;;;21.04;27.34;95265.28;10497889;28;3122;-68
2024/01/19 04:27:15;;;;;;;;;;;;;;;21.03;27.16;95266.38;10466851;28;3041;-67
2024/01/19 04:32:15;;;;;;;;;;;;;;;21.01;27.61;95271.13;10504735;28;2918;-68
2024/01/19 04:37:15;;;;;;;;;;;;;;;21.02;27.12;95259.53;10498313;28;3063;-67
2024/01/19 04:42:15;;;;;;;;;;;;;;;21.02;27.47;95266.63;10464747;28;3380;-69
2024/01/19 04:47:16;;;;;;;;;;;;;;;21.02;27.05;95277.97;10468204;28;2995;-68
2024/01/19 04:52:16;;;;;;;;;;;;;;;21.04;27.08;95272.44;10470398;28;3023;-69
2024/01/19 04:57:16;;;;;;;;;;;;;;;21.03;27.31;95290.09;10471959;28;2906;-68
2024/01/19 05:02:17;;;;;;;;;;;;;;;21.07;27.16;95290.28;10473592;28;2849;-69
2024/01/19 05:07:17;;;;;;;;;;;;;;;21.05;27.11;95289.78;10473075;28;2937;-68
2024/01/19 05:12:17;;;;;;;;;;;;;;;21.04;26.80;95296.91;10471705;28;3078;-69
2024/01/19 05:17:18;;;;;;;;;;;;;;;21.03;26.92;95305.91;10469835;28;2799;-68
2024/01/19 05:22:18;;;;;;;;;;;;;;;21.05;27.04;95324.84;10466622;28;2937;-69
2024/01/19 05:27:18;;;;;;;;;;;;;;;21.06;26.83;95323.75;10473955;28;2926;-67
2024/01/19 05:32:18;;;;;;;;;;;;;;;21.06;26.88;95328.25;10469426;28;2972;-68
2024/01/19 05:37:19;;;;;;;;;;;;;;;21.04;26.89;95327.75;10467038;28;2925;-69
2024/01/19 05:42:19;;;;;;;;;;;;;;;21.07;26.68;95337.72;10467303;28;3020;-68
2024/01/19 05:47:19;;;;;;;;;;;;;;;21.08;26.49;95338.50;10468621;28;3016;-69
2024/01/19 05:52:19;;;;;;;;;;;;;;;21.04;26.92;95344.34;10465801;28;3048;-69
2024/01/19 05:57:20;;;;;;;;;;;;;;;21.07;26.48;95350.91;10446160;28;2825;-69
2024/01/19 06:02:21;;;;;;;;;;;;;;;21.10;26.34;95357.44;10464842;28;2937;-68
2024/01/19 06:07:22;;;;;;;;;;;;;;;21.08;26.76;95359.59;10461799;28;2957;-69
2024/01/19 06:12:22;;;;;;;;;;;;;;;21.05;26.49;95377.53;10467933;28;2864;-68
2024/01/19 06:17:23;;;;;;;;;;;;;;;21.04;26.89;95389.13;10474540;28;2988;-68
2024/01/19 06:22:24;;;;;;;;;;;;;;;21.03;26.49;95392.84;10464921;28;2930;-68
2024/01/19 06:27:24;;;;;;;;;;;;;;;21.05;26.69;95401.25;10469784;28;2882;-67
2024/01/19 06:32:24;;;;;;;;;;;;;;;21.03;26.79;95413.16;10469053;28;2995;-68
2024/01/19 06:37:24;;;;;;;;;;;;;;;21.05;26.69;95421.56;10469783;28;2966;-68
2024/01/19 06:42:26;;;;;;;;;;;;;;;21.06;26.62;95417.88;10472050;28;3007;-68
2024/01/19 06:47:28;;;;;;;;;;;;;;;21.03;26.78;95435.03;10502519;28;3077;-68
2024/01/19 06:52:29;;;;;;;;;;;;;;;21.07;26.54;95451.03;10476824;28;2905;-69
2024/01/19 06:57:29;;;;;;;;;;;;;;;21.11;26.17;95459.16;10477008;28;3044;-69
2024/01/19 07:02:30;;;;;;;;;;;;;;;21.11;26.71;95464.44;10474995;28;2953;-69
2024/01/19 07:07:30;;;;;;;;;;;;;;;21.08;26.25;95477.09;10456910;28;2982;-64
2024/01/19 07:12:30;;;;;;;;;;;;;;;21.08;26.47;95476.34;10475433;28;3007;-69
2024/01/19 07:17:30;;;;;;;;;;;;;;;21.12;26.51;95495.00;10474550;28;2943;-69
2024/01/19 07:22:31;;;;;;;;;;;;;;;21.11;26.54;95504.75;10472219;28;2916;-67
2024/01/19 07:27:31;;;;;;;;;;;;;;;21.11;26.64;95517.13;10472911;28;3060;-67
2024/01/19 07:32:31;;;;;;;;;;;;;;;21.11;26.76;95533.75;10467306;28;2866;-66
2024/01/19 07:37:32;;;;;;;;;;;;;;;21.12;26.61;95545.06;10466284;28;3161;-65
2024/01/19 07:42:32;;;;;;;;;;;;;;;21.12;26.39;95545.88;10472357;28;2953;-62
2024/01/19 07:47:34;;;;;;;;;;;;;;;21.11;26.64;95554.03;10469366;28;2933;-63
2024/01/19 07:52:34;;;;;;;;;;;;;;;21.11;26.59;95569.84;10492132;27;2933;-66
2024/01/19 07:57:34;;;;;;;;;;;;;;;21.11;26.26;95581.19;10449773;28;2953;-66
2024/01/19 08:02:34;;;;;;;;;;;;;;;21.12;26.75;95588.03;10452227;28;2870;-65
2024/01/19 08:07:37;;;;;;;;;;;;;;;21.12;27.16;95606.50;10466121;28;3168;-68
2024/01/19 08:12:37;;;;;;;;;;;;;;;21.13;27.13;95612.53;10467021;28;2939;-62
2024/01/19 08:17:37;;;;;;;;;;;;;;;21.18;27.24;95623.03;10464312;28;3028;-64
2024/01/19 08:22:38;;;;;;;;;;;;;;;21.16;27.15;95628.59;10466714;28;2896;-65
2024/01/19 08:27:41;;;;;;;;;;;;;;;21.18;27.43;95626.44;10468433;28;2988;-72
2024/01/19 08:32:41;;;;;;;;;;;;;;;21.17;27.12;95630.13;10476603;28;2965;-77
2024/01/19 08:37:42;;;;;;;;;;;;;;;21.19;27.12;95635.13;10466448;28;3022;-71
2024/01/19 08:42:42;;;;;;;;;;;;;;;21.21;27.00;95660.16;10465392;28;3097;-67
2024/01/19 08:47:42;;;;;;;;;;;;;;;21.19;27.12;95656.22;10472926;28;2942;-65
2024/01/19 08:52:42;;;;;;;;;;;;;;;21.20;27.23;95663.06;10470927;28;2868;-69
2024/01/19 08:57:43;;;;;;;;;;;;;;;21.21;27.14;95672.53;10500853;28;2904;-69
2024/01/19 09:02:43;;;;;;;;;;;;;;;21.21;27.04;95691.78;10479449;28;2976;-68
2024/01/19 09:07:44;;;;;;;;;;;;;;;21.23;27.15;95694.13;10464621;28;2969;-65
2024/01/19 09:12:44;;;;;;;;;;;;;;;21.19;27.10;95693.13;10459377;28;3258;-65
2024/01/19 09:17:44;;;;;;;;;;;;;;;21.23;27.40;95710.75;10462395;28;2977;-64
2024/01/19 09:22:44;;;;;;;;;;;;;;;21.23;26.98;95715.22;10463317;28;3017;-63
2024/01/19 09:27:45;;;;;;;;;;;;;;;21.23;27.57;95731.03;10461532;28;3006;-61
2024/01/19 09:32:45;;;;;;;;;;;;;;;21.26;27.46;95748.94;10475061;28;2973;-64
2024/01/19 09:37:45;;;;;;;;;;;;;;;21.28;27.18;95760.00;10457104;28;3015;-63
2024/01/19 09:42:46;;;;;;;;;;;;;;;21.28;27.57;95770.56;10459183;28;2935;-68
2024/01/19 09:47:55;;;;;;;;;;;;;;;21.27;27.44;95785.56;10465166;28;3107;-63
2024/01/19 09:52:59;;;;;;;;;;;;;;;21.27;27.66;95796.13;10481167;28;3022;-63
2024/01/19 09:57:59;;;;;;;;;;;;;;;21.29;27.21;95809.81;10466585;28;2922;-62
2024/01/19 10:03:02;;;;;;;;;;;;;;;21.30;27.50;95814.03;10491561;27;3232;-63
2024/01/19 10:08:03;;;;;;;;;;;;;;;21.30;27.67;95821.16;10458019;28;3121;-66
2024/01/19 10:13:03;;;;;;;;;;;;;;;21.28;27.15;95823.28;10475260;28;3035;-74
2024/01/19 10:18:05;;;;;;;;;;;;;;;21.25;27.66;95824.63;10505145;27;2989;-76
2024/01/19 10:23:21;;;;;;;;;;;;;;;21.28;27.65;95834.63;10500346;27;3027;-68
2024/01/19 10:28:33;;;;;;;;;;;;;;;21.31;27.80;95830.66;10481614;28;3005;-64
2024/01/19 10:33:33;;;;;;;;;;;;;;;21.33;27.68;95839.06;10470712;28;2960;-61
2024/01/19 10:38:33;;;;;;;;;;;;;;;21.30;27.85;95834.34;10470213;28;3026;-69
2024/01/19 10:43:33;;;;;;;;;;;;;;;21.32;27.62;95840.91;10469760;28;3025;-66
2024/01/19 10:48:34;;;;;;;;;;;;;;;21.34;27.18;95844.06;10504298;28;2899;-66
2024/01/19 10:53:34;;;;;;;;;;;;;;;21.37;27.34;95845.38;10469088;28;3228;-66
2024/01/19 10:58:34;;;;;;;;;;;;;;;21.35;27.24;95842.97;10469272;28;2923;-64
2024/01/19 11:03:34;;;;;;;;;;;;;;;21.33;27.08;95839.06;10498859;28;3008;-62
2024/01/19 11:08:35;;;;;;;;;;;;;;;21.31;26.91;95854.38;10454395;28;3060;-64
2024/01/19 11:13:36;;;;;;;;;;;;;;;21.32;27.36;95853.31;10502217;28;2787;-64
2024/01/19 11:18:37;;;;;;;;;;;;;;;21.35;28.20;95865.94;10468373;28;3059;-64
2024/01/19 11:23:38;;;;;;;;;;;;;;;21.39;29.48;95869.63;10461356;28;3001;-59
2024/01/19 11:28:47;;;;;;;;;;;;;;;21.41;29.18;95870.88;10464096;28;3060;-59
2024/01/19 11:33:47;;;;;;;;;;;;;;;21.38;28.12;95870.66;10467126;28;2899;-59
2024/01/19 11:38:48;;;;;;;;;;;;;;;21.39;28.44;95873.00;10464933;28;2853;-59
2024/01/19 11:43:48;;;;;;;;;;;;;;;21.44;28.17;95880.09;10467135;28;2965;-57
2024/01/19 11:48:48;;;;;;;;;;;;;;;21.41;29.36;95880.66;10463263;28;2992;-60
2024/01/19 11:54:01;;;;;;;;;;;;;;;21.41;28.97;95880.66;10467612;28;2857;-62
2024/01/19 11:59:03;;;;;;;;;;;;;;;21.41;28.56;95872.75;10459371;28;3043;-61
2024/01/19 12:04:04;;;;;;;;;;;;;;;21.40;28.56;95881.72;10463827;28;2935;-62
2024/01/19 12:09:06;;;;;;;;;;;;;;;21.39;28.74;95878.28;10464561;28;3008;-62
2024/01/19 12:14:09;;;;;;;;;;;;;;;21.39;28.84;95867.75;10460462;28;3008;-62
2024/01/19 12:19:09;;;;;;;;;;;;;;;21.35;28.16;95861.44;10464511;28;2944;-62
2024/01/19 12:24:10;;;;;;;;;;;;;;;21.41;28.64;95873.53;10463432;28;2956;-62
2024/01/19 12:29:10;;;;;;;;;;;;;;;21.41;28.87;95864.84;10464864;28;2934;-61
2024/01/19 12:34:11;;;;;;;;;;;;;;;21.44;29.17;95867.72;10463583;28;3137;-66
2024/01/19 12:39:13;;;;;;;;;;;;;;;21.47;28.92;95874.28;10463039;28;3070;-65
2024/01/19 12:44:14;;;;;;;;;;;;;;;21.45;29.26;95882.47;10468346;28;3020;-64
2024/01/19 12:49:14;;;;;;;;;;;;;;;21.45;29.27;95877.19;10467195;28;2946;-64
2024/01/19 12:54:20;;;;;;;;;;;;;;;21.44;29.04;95874.84;10466584;28;3012;-64
2024/01/19 12:59:21;;;;;;;;;;;;;;;21.41;29.46;95870.13;10467036;28;3111;-64
2024/01/19 13:04:23;;;;;;;;;;;;;;;21.39;29.52;95885.44;10470555;28;2870;-62
2024/01/19 13:09:25;;;;;;;;;;;;;;;21.32;29.57;95879.66;10465840;28;2953;-62
2024/01/19 13:14:25;;;;;;;;;;;;;;;21.30;29.69;95884.44;10462510;28;3072;-60
2024/01/19 13:19:25;;;;;;;;;;;;;;;21.27;29.81;95896.31;10462554;28;3639;-59
2024/01/19 13:24:26;;;;;;;;;;;;;;;21.22;29.54;95898.19;10470802;28;2965;-62
2024/01/19 13:29:26;;;;;;;;;;;;;;;21.16;29.79;95908.00;10499233;28;2960;-63
2024/01/19 13:34:28;;;;;;;;;;;;;;;21.11;29.72;95904.59;10481178;28;2877;-62
2024/01/19 13:39:28;;;;;;;;;;;;;;;21.06;29.38;95911.47;10463233;28;2869;-65
2024/01/19 13:44:30;;;;;;;;;;;;;;;21.01;29.35;95915.94;10478808;28;2929;-63
2024/01/19 13:49:31;;;;;;;;;;;;;;;20.94;29.38;95924.16;10462610;28;2842;-64
2024/01/19 13:54:31;;;;;;;;;;;;;;;20.92;29.16;95939.44;10450260;28;2866;-64
2024/01/19 13:59:31;;;;;;;;;;;;;;;20.88;28.99;95941.03;10461728;28;3002;-63
2024/01/19 14:04:32;;;;;;;;;;;;;;;20.82;28.95;95942.13;10460446;28;3004;-61
2024/01/19 14:09:32;;;;;;;;;;;;;;;20.78;29.03;95954.25;10495339;28;3004;-64
2024/01/19 14:14:32;;;;;;;;;;;;;;;20.73;28.64;95958.78;10461548;28;3074;-64
2024/01/19 14:19:32;;;;;;;;;;;;;;;20.70;28.91;95954.03;10476941;28;2913;-63
2024/01/19 14:24:33;;;;;;;;;;;;;;;20.65;28.58;95961.97;10458215;28;2891;-63
2024/01/19 14:29:33;;;;;;;;;;;;;;;20.62;28.61;95971.19;10464005;28;2882;-64
2024/01/19 14:34:33;;;;;;;;;;;;;;;20.59;28.54;95979.59;10486396;28;3037;-63
2024/01/19 14:39:34;;;;;;;;;;;;;;;20.56;28.81;95976.72;10460659;28;2948;-63
2024/01/19 14:44:34;;;;;;;;;;;;;;;20.51;28.78;95982.78;10494043;28;2859;-64
2024/01/19 14:49:39;;;;;;;;;;;;;;;20.48;28.74;95996.50;10465803;28;2874;-64
2024/01/19 14:54:39;;;;;;;;;;;;;;;20.44;28.73;95997.31;10491160;28;3014;-63
2024/01/19 14:59:39;;;;;;;;;;;;;;;20.38;28.82;95999.13;10469211;28;2853;-62
2024/01/19 15:04:40;;;;;;;;;;;;;;;20.39;28.74;96002.56;10470856;28;2902;-65
2024/01/19 15:09:42;;;;;;;;;;;;;;;20.33;28.86;96012.31;10467580;28;2902;-65
2024/01/19 15:14:43;;;;;;;;;;;;;;;20.30;28.80;96012.84;10470124;28;2887;-65
2024/01/19 15:19:43;;;;;;;;;;;;;;;20.28;28.68;96012.31;10472442;28;3068;-65
2024/01/19 15:24:43;;;;;;;;;;;;;;;20.24;28.80;96009.44;10470388;28;3084;-65
2024/01/19 15:29:44;;;;;;;;;;;;;;;20.20;28.97;96028.66;10471350;28;3164;-66
2024/01/19 15:34:44;;;;;;;;;;;;;;;20.19;28.82;96042.84;10448316;28;2965;-65
2024/01/19 15:39:44;;;;;;;;;;;;;;;20.16;28.72;96035.47;10467813;28;3044;-65
2024/01/19 15:44:44;;;;;;;;;;;;;;;20.13;28.78;96043.91;10470397;28;2934;-65
2024/01/19 15:49:45;;;;;;;;;;;;;;;20.09;28.62;96056.00;10467925;28;3431;-64
2024/01/19 15:54:46;;;;;;;;;;;;;;;20.06;28.91;96065.22;10498867;28;3041;-65
2024/01/19 15:59:46;;;;;;;;;;;;;;;20.03;28.57;96065.72;10465438;28;3093;-65
2024/01/19 16:04:46;;;;;;;;;;;;;;;19.99;28.71;96074.41;10471522;28;3056;-65
2024/01/19 16:09:46;;;;;;;;;;;;;;;19.99;28.84;96079.69;10463408;28;3090;-65
2024/01/19 16:14:47;;;;;;;;;;;;;;;19.98;28.57;96099.13;10501605;28;2870;-65
2024/01/19 16:19:53;;;;;;;;;;;;;;;19.93;28.83;96102.53;10468788;28;2950;-65
2024/01/19 16:24:53;;;;;;;;;;;;;;;19.91;28.64;96098.59;10465630;28;2897;-63
2024/01/19 16:29:54;;;;;;;;;;;;;;;19.90;28.58;96100.44;10468068;28;2909;-61
2024/01/19 16:34:54;;;;;;;;;;;;;;;19.89;28.54;96111.22;10468090;28;3083;-60
2024/01/19 16:39:54;;;;;;;;;;;;;;;19.85;28.39;96104.88;10474084;28;2935;-60
2024/01/19 16:44:55;;;;;;;;;;;;;;;19.84;28.55;96116.47;10465145;28;3146;-61
2024/01/19 16:49:55;;;;;;;;;;;;;;;19.82;28.41;96121.22;10469566;28;2971;-64
2024/01/19 16:54:55;;;;;;;;;;;;;;;19.81;29.46;96116.97;10468260;28;2925;-63
2024/01/19 16:59:55;;;;;;;;;;;;;;;19.87;29.90;96129.09;10478152;28;2778;-62
2024/01/19 17:04:56;;;;;;;;;;;;;;;19.89;29.91;96133.06;10485261;28;1498;-62
2024/01/19 17:09:56;;;;;;;;;;;;;;;19.94;30.09;96137.53;10483003;28;2419;-63
2024/01/19 17:14:56;;;;;;;;;;;;;;;19.95;29.72;96141.75;10483475;28;1811;-63
2024/01/19 17:19:56;;;;;;;;;;;;;;;19.98;29.52;96151.75;10485376;28;1969;-63
2024/01/19 17:24:57;;;;;;;;;;;;;;;20.00;29.47;96160.19;10484355;28;1594;-63
2024/01/19 17:29:57;;;;;;;;;;;;;;;20.02;29.21;96171.25;10482229;28;1437;-63
2024/01/19 17:34:58;;;;;;;;;;;;;;;20.00;29.27;96187.28;10482338;28;1519;-63
2024/01/19 17:39:58;;;;;;;;;;;;;;;20.01;29.24;96188.88;10474855;28;2838;-64
2024/01/19 17:44:58;;;;;;;;;;;;;;;19.98;29.29;96193.88;10486030;28;2064;-64
2024/01/19 17:49:59;;;;;;;;;;;;;;;19.96;30.09;96194.13;10490578;28;1544;-64
2024/01/19 17:54:59;;;;;;;;;;;;;;;20.02;30.28;96208.09;10484303;28;2082;-61
2024/01/19 17:59:59;;;;;;;;;;;;;;;20.08;29.92;96215.75;10483155;28;1984;-63
2024/01/19 18:05:00;;;;;;;;;;;;;;;20.19;29.56;96227.09;10482709;28;1450;-62
2024/01/19 18:10:00;;;;;;;;;;;;;;;20.25;29.09;96229.50;10481543;28;1522;-63
2024/01/19 18:15:00;;;;;;;;;;;;;;;20.32;29.31;96247.66;10479435;28;1470;-62
2024/01/19 18:20:01;;;;;;;;;;;;;;;20.41;29.21;96256.66;10478849;28;1915;-62
2024/01/19 18:25:01;;;;;;;;;;;;;;;20.51;30.71;96264.56;10482503;28;1640;-66
2024/01/19 18:30:02;;;;;;;;;;;;;;;20.62;29.89;96271.47;10482359;28;1629;-67
2024/01/19 18:35:02;;;;;;;;;;;;;;;20.72;31.19;96278.56;10479950;28;1480;-68
2024/01/19 18:40:03;;;;;;;;;;;;;;;20.82;32.81;96281.22;10484463;28;2463;-68
2024/01/19 18:45:04;;;;;;;;;;;;;;;20.88;33.38;96288.88;10497632;28;1550;-67
2024/01/19 18:50:04;;;;;;;;;;;;;;;20.97;33.31;96292.59;10479606;28;1493;-67
2024/01/19 18:55:05;;;;;;;;;;;;;;;21.14;33.13;96297.63;10503458;28;1554;-68
2024/01/19 19:00:05;;;;;;;;;;;;;;;21.18;32.83;96297.88;10483002;28;1906;-68
2024/01/19 19:05:05;;;;;;;;;;;;;;;21.12;32.22;96293.66;10489062;28;1499;-68
2024/01/19 19:10:06;;;;;;;;;;;;;;;21.10;33.19;96303.69;10490089;28;1613;-67
2024/01/19 19:15:06;;;;;;;;;;;;;;;21.16;33.02;96310.53;10489341;28;1743;-67
2024/01/19 19:20:08;;;;;;;;;;;;;;;21.05;32.38;96309.75;10486584;28;1910;-67
2024/01/19 19:25:09;;;;;;;;;;;;;;;21.06;34.38;96308.69;10484896;28;2310;-67
2024/01/19 19:30:10;;;;;;;;;;;;;;;20.81;32.88;96324.44;10499546;28;1482;-70
2024/01/19 19:35:10;;;;;;;;;;;;;;;20.77;31.71;96329.41;10492076;28;1526;-68
2024/01/19 19:40:12;;;;;;;;;;;;;;;20.79;30.79;96329.19;10486124;28;2500;-70
2024/01/19 19:45:12;;;;;;;;;;;;;;;20.86;30.71;96343.69;10491004;28;1451;-65
2024/01/19 19:50:13;;;;;;;;;;;;;;;20.95;29.86;96343.97;10470108;28;1610;-66
2024/01/19 19:55:14;;;;;;;;;;;;;;;21.15;31.28;96338.75;10484490;28;1628;-65
2024/01/19 20:00:14;;;;;;;;;;;;;;;21.34;32.33;96354.84;10495348;28;1965;-65
2024/01/19 20:05:15;;;;;;;;;;;;;;;21.38;33.31;96354.03;10486179;28;1930;-64
2024/01/19 20:10:15;;;;;;;;;;;;;;;21.37;32.35;96351.69;10496976;28;2664;-65
2024/01/19 20:15:18;;;;;;;;;;;;;;;21.20;32.74;96356.41;10496643;28;1512;-65
2024/01/19 20:20:18;;;;;;;;;;;;;;;21.41;33.26;96358.00;10482682;28;2007;-65
2024/01/19 20:25:18;;;;;;;;;;;;;;;21.35;33.82;96353.78;10486505;28;2818;-67
2024/01/19 20:30:19;;;;;;;;;;;;;;;21.39;34.19;96360.13;10492384;28;2044;-64
2024/01/19 20:35:19;;;;;;;;;;;;;;;21.46;36.04;96373.81;10485688;28;1640;-65
2024/01/19 20:40:21;;;;;;;;;;;;;;;21.53;34.83;96359.31;10467704;28;2037;-64
2024/01/19 20:45:21;;;;;;;;;;;;;;;21.54;36.62;96376.72;10487067;28;2031;-65
2024/01/19 20:50:22;;;;;;;;;;;;;;;21.53;35.50;96377.78;10482975;28;2826;-65
2024/01/19 20:55:23;;;;;;;;;;;;;;;21.49;35.94;96383.84;10485935;28;2762;-65
2024/01/19 21:00:24;;;;;;;;;;;;;;;21.41;36.31;96387.03;10485006;28;1966;-64
2024/01/19 21:05:24;;;;;;;;;;;;;;;21.45;35.78;96377.53;10487465;28;1555;-64
2024/01/19 21:10:24;;;;;;;;;;;;;;;21.42;36.07;96389.38;10483091;28;2088;-64
2024/01/19 21:15:25;;;;;;;;;;;;;;;21.47;36.69;96396.53;10485812;28;2052;-64
2024/01/19 21:20:25;;;;;;;;;;;;;;;21.44;37.10;96392.56;10500239;28;1902;-64
2024/01/19 21:25:25;;;;;;;;;;;;;;;21.36;37.06;96400.19;10482353;28;1481;-65
2024/01/19 21:30:25;;;;;;;;;;;;;;;21.38;36.53;96414.69;10482184;28;1507;-65
2024/01/19 21:35:26;;;;;;;;;;;;;;;21.29;36.59;96415.50;10481832;28;2577;-66
2024/01/19 21:40:27;;;;;;;;;;;;;;;21.24;37.26;96423.38;10468330;28;2303;-65
2024/01/19 21:45:27;;;;;;;;;;;;;;;21.27;37.92;96420.25;10490599;28;1502;-64
2024/01/19 21:50:28;;;;;;;;;;;;;;;21.28;37.22;96421.81;10483695;28;1633;-63
2024/01/19 21:55:30;;;;;;;;;;;;;;;21.18;38.04;96434.97;10481980;28;1492;-63
2024/01/19 22:00:30;;;;;;;;;;;;;;;21.35;38.81;96436.31;10480569;28;1980;-63
2024/01/19 22:05:31;;;;;;;;;;;;;;;21.22;38.53;96449.22;10515592;28;1686;-64
2024/01/19 22:10:31;;;;;;;;;;;;;;;21.09;38.81;96442.59;10490034;28;1462;-65
2024/01/19 22:15:34;;;;;;;;;;;;;;;21.28;38.65;96453.44;10487282;28;1532;-64
2024/01/19 22:20:34;;;;;;;;;;;;;;;21.16;38.81;96463.44;10465789;28;2375;-64
2024/01/19 22:25:35;;;;;;;;;;;;;;;21.19;38.50;96465.53;10517436;28;1721;-63
2024/01/19 22:30:35;;;;;;;;;;;;;;;20.81;43.28;96472.00;10488154;28;1541;-62
2024/01/19 22:35:35;;;;;;;;;;;;;;;20.54;37.56;96473.97;10473700;28;1491;-60
2024/01/19 22:40:36;;;;;;;;;;;;;;;20.45;35.75;96483.38;10484549;28;2223;-62
2024/01/19 22:45:36;;;;;;;;;;;;;;;20.43;34.39;96491.56;10495010;28;1487;-63
2024/01/19 22:50:36;;;;;;;;;;;;;;;20.35;34.18;96499.94;10482152;28;1497;-63
2024/01/19 22:55:36;;;;;;;;;;;;;;;20.38;33.08;96509.94;10481478;28;1674;-64
2024/01/19 23:00:37;;;;;;;;;;;;;;;20.37;32.97;96512.84;10481095;28;1967;-64
2024/01/19 23:05:37;;;;;;;;;;;;;;;20.37;32.48;96508.38;10495858;28;1505;-64
2024/01/19 23:10:38;;;;;;;;;;;;;;;20.38;31.99;96511.81;10480937;28;1542;-64
2024/01/19 23:15:38;;;;;;;;;;;;;;;20.41;31.83;96522.63;10483514;28;1450;-63
2024/01/19 23:20:39;;;;;;;;;;;;;;;20.46;31.23;96521.84;10485291;28;2593;-64
2024/01/19 23:25:39;;;;;;;;;;;;;;;20.46;30.79;96530.56;10486866;28;1667;-64
2024/01/19 23:30:40;;;;;;;;;;;;;;;20.41;30.69;96546.31;10488289;28;1522;-64
2024/01/19 23:35:40;;;;;;;;;;;;;;;20.43;30.45;96538.16;10479229;28;3037;-64
2024/01/19 23:40:40;;;;;;;;;;;;;;;20.37;30.48;96545.22;10468635;28;3017;-64
2024/01/19 23:45:40;;;;;;;;;;;;;;;20.32;30.26;96547.81;10472594;28;2998;-65
2024/01/19 23:50:41;;;;;;;;;;;;;;;20.34;29.90;96556.25;10475329;28;2904;-64
2024/01/19 23:55:41;;;;;;;;;;;;;;;20.30;29.75;96563.06;10468105;28;3223;-64
